Time;durP1;ratioP1;P1;durP2;ratioP2;P2;SDS_P1;SDS_P2;PMS_P1;PMS_P2;Temp;Humidity;BMP_temperature;BMP_pressure;BME280_temperature;BME280_humidity;BME280_pressure;Samples;Min_cycle;Max_cycle;Signal;HPM_P1;HPM_P2
2023/12/12 00:01:34;;;;;;;18.73;17.13;;;18.10;99.90;;;;;;4985583;28;20066;-68
2023/12/12 00:04:00;;;;;;;20.65;18.60;;;17.80;99.90;;;;;;4993025;28;20088;-66
2023/12/12 00:06:26;;;;;;;18.75;17.08;;;18.30;99.90;;;;;;5006664;28;20548;-67
2023/12/12 00:08:51;;;;;;;20.80;18.80;;;17.70;99.90;;;;;;4998029;28;20278;-67
2023/12/12 00:11:17;;;;;;;21.65;19.58;;;18.00;99.90;;;;;;4988269;28;20415;-67
2023/12/12 00:13:43;;;;;;;18.58;17.02;;;17.70;99.90;;;;;;5005825;28;20046;-66
2023/12/12 00:16:09;;;;;;;21.27;19.17;;;18.40;99.90;;;;;;4983430;28;20508;-67
2023/12/12 00:18:35;;;;;;;21.40;19.13;;;18.50;99.90;;;;;;4980768;28;20050;-68
2023/12/12 00:21:02;;;;;;;20.35;18.67;;;17.80;99.90;;;;;;4988665;28;20415;-67
2023/12/12 00:23:27;;;;;;;22.00;19.90;;;18.10;99.90;;;;;;4985457;28;20053;-67
2023/12/12 00:25:53;;;;;;;21.15;19.05;;;17.70;99.90;;;;;;5002119;28;20416;-66
2023/12/12 00:28:18;;;;;;;21.33;19.27;;;17.90;99.90;;;;;;4992524;28;20124;-66
2023/12/12 00:30:44;;;;;;;21.88;19.90;;;17.70;99.90;;;;;;4992479;28;20035;-66
2023/12/12 00:33:10;;;;;;;22.27;20.13;;;17.90;99.90;;;;;;4999360;28;20123;-66
2023/12/12 00:35:35;;;;;;;22.73;20.70;;;18.10;99.90;;;;;;5004700;28;20076;-67
2023/12/12 00:38:01;;;;;;;23.20;21.02;;;17.60;99.90;;;;;;5000097;28;20046;-65
2023/12/12 00:40:26;;;;;;;23.27;20.95;;;17.50;99.90;;;;;;4985994;28;20046;-66
2023/12/12 00:42:52;;;;;;;22.08;19.85;;;18.00;99.90;;;;;;4989423;28;20046;-66
2023/12/12 00:45:18;;;;;;;27.40;23.95;;;17.60;99.90;;;;;;5003466;28;20548;-66
2023/12/12 00:47:44;;;;;;;24.92;22.35;;;18.10;99.90;;;;;;5004394;28;20041;-67
2023/12/12 00:50:09;;;;;;;26.17;23.70;;;18.10;99.90;;;;;;4996502;28;20053;-67
2023/12/12 00:52:35;;;;;;;27.77;25.25;;;17.70;99.90;;;;;;4994201;28;20502;-66
2023/12/12 00:55:01;;;;;;;25.85;23.13;;;17.40;99.90;;;;;;5003330;28;20049;-66
2023/12/12 00:57:27;;;;;;;27.55;24.58;;;17.40;99.90;;;;;;4988411;28;20053;-65
2023/12/12 00:59:53;;;;;;;29.85;26.70;;;17.30;99.90;;;;;;5006546;28;20495;-65
2023/12/12 01:02:25;;;;;;;29.45;26.60;;;17.00;99.90;;;;;;4986443;28;20505;-67
2023/12/12 01:04:52;;;;;;;27.23;24.42;;;17.10;99.90;;;;;;4991933;28;20030;-68
2023/12/12 01:07:18;;;;;;;24.63;22.33;;;17.50;99.90;;;;;;4999607;28;20038;-67
2023/12/12 01:09:45;;;;;;;25.60;23.00;;;17.40;99.90;;;;;;5003300;28;20164;-67
2023/12/12 01:12:11;;;;;;;25.95;23.23;;;16.80;99.90;;;;;;4987865;28;20404;-67
2023/12/12 01:14:36;;;;;;;24.75;22.38;;;16.90;99.90;;;;;;5004089;28;20060;-67
2023/12/12 01:17:03;;;;;;;24.27;21.90;;;17.10;99.90;;;;;;4999388;28;20121;-67
2023/12/12 01:19:30;;;;;;;26.50;23.48;;;17.70;99.90;;;;;;5005215;28;20072;-67
2023/12/12 01:21:56;;;;;;;26.02;23.33;;;17.70;99.90;;;;;;4988179;28;20520;-67
2023/12/12 01:24:21;;;;;;;29.23;26.60;;;17.10;99.90;;;;;;4984976;28;20050;-67
2023/12/12 01:26:47;;;;;;;29.25;23.80;;;17.40;99.90;;;;;;4987734;28;20497;-67
2023/12/12 01:29:16;;;;;;;26.17;23.80;;;16.60;99.90;;;;;;4986208;28;20042;-67
2023/12/12 01:31:44;;;;;;;28.58;25.70;;;16.90;99.90;;;;;;5012377;28;20042;-67
2023/12/12 01:34:10;;;;;;;27.38;24.90;;;17.10;99.90;;;;;;4985033;28;20049;-67
2023/12/12 01:36:35;;;;;;;33.10;29.42;;;17.30;99.90;;;;;;4991235;28;20034;-68
2023/12/12 01:39:01;;;;;;;32.30;29.05;;;16.20;99.90;;;;;;4995260;28;20106;-67
2023/12/12 01:41:27;;;;;;;32.03;28.95;;;16.80;99.90;;;;;;4987644;28;20776;-68
2023/12/12 01:43:52;;;;;;;31.58;28.77;;;16.80;99.90;;;;;;4986297;28;20053;-67
2023/12/12 01:46:20;;;;;;;31.60;28.35;;;16.50;99.90;;;;;;5004274;28;20060;-66
2023/12/12 01:48:47;;;;;;;31.85;28.70;;;16.70;99.90;;;;;;5009037;28;20053;-67
2023/12/12 01:51:13;;;;;;;31.55;28.48;;;16.00;99.90;;;;;;5001525;28;20100;-67
2023/12/12 01:53:43;;;;;;;29.92;27.15;;;16.70;99.90;;;;;;4989529;28;20049;-67
2023/12/12 01:56:10;;;;;;;30.58;27.40;;;16.60;99.90;;;;;;4989240;28;20468;-67
2023/12/12 01:58:37;;;;;;;30.08;26.98;;;15.80;99.90;;;;;;4999591;28;20048;-66
2023/12/12 02:01:03;;;;;;;29.20;26.52;;;16.20;99.90;;;;;;5007092;28;20145;-67
2023/12/12 02:03:30;;;;;;;28.08;25.23;;;15.60;99.90;;;;;;4987989;28;20470;-66
2023/12/12 02:05:58;;;;;;;29.08;26.20;;;15.50;99.90;;;;;;5000394;28;20132;-66
2023/12/12 02:08:27;;;;;;;28.58;25.67;;;16.60;99.90;;;;;;4992579;28;20133;-67
2023/12/12 02:10:56;;;;;;;31.00;27.42;;;15.40;99.90;;;;;;4991622;28;20547;-67
2023/12/12 02:13:21;;;;;;;24.38;22.45;;;16.50;99.90;;;;;;4973747;28;20058;-65
2023/12/12 02:15:47;;;;;;;30.42;27.35;;;15.00;99.90;;;;;;4989474;28;20491;-66
2023/12/12 02:18:16;;;;;;;32.60;30.08;;;13.80;99.90;;;;;;4993604;28;20038;-64
2023/12/12 02:20:42;;;;;;;32.78;29.83;;;13.80;99.90;;;;;;4991151;28;20621;-66
2023/12/12 02:23:08;;;;;;;30.73;28.08;;;13.80;99.90;;;;;;4997490;28;20049;-66
2023/12/12 02:25:34;;;;;;;31.33;28.48;;;15.10;99.90;;;;;;4990872;28;20054;-65
2023/12/12 02:28:02;;;;;;;32.35;29.38;;;14.30;99.90;;;;;;5005577;28;20499;-65
2023/12/12 02:30:28;;;;;;;30.40;27.52;;;14.30;99.90;;;;;;4995179;28;20045;-66
2023/12/12 02:32:54;;;;;;;29.45;26.58;;;14.40;99.90;;;;;;5004233;28;20067;-65
2023/12/12 02:35:22;;;;;;;31.90;27.00;;;15.10;99.90;;;;;;4992995;28;20038;-67
2023/12/12 02:37:48;;;;;;;33.05;29.10;;;17.00;99.90;;;;;;5001868;28;20133;-66
2023/12/12 02:40:13;;;;;;;34.33;31.13;;;15.50;99.90;;;;;;4990987;28;20632;-66
2023/12/12 02:42:44;;;;;;;33.00;30.05;;;15.10;99.90;;;;;;4993371;28;20535;-65
2023/12/12 02:45:10;;;;;;;30.98;28.25;;;15.30;99.90;;;;;;4989267;28;20042;-66
2023/12/12 02:47:36;;;;;;;33.67;30.33;;;15.10;99.90;;;;;;5000056;28;20445;-65
2023/12/12 02:50:01;;;;;;;30.50;27.70;;;15.00;99.90;;;;;;4988845;28;20042;-66
2023/12/12 02:52:27;;;;;;;33.95;30.67;;;14.00;99.90;;;;;;4995859;28;20040;-64
2023/12/12 02:54:52;;;;;;;36.00;32.45;;;14.40;99.90;;;;;;4992719;28;20042;-67
2023/12/12 02:57:18;;;;;;;33.60;30.63;;;13.90;99.90;;;;;;4986050;28;20133;-65
2023/12/12 02:59:44;;;;;;;32.95;29.75;;;13.90;99.90;;;;;;4975129;28;20477;-66
2023/12/12 03:02:09;;;;;;;35.40;31.92;;;15.10;99.90;;;;;;4994731;28;20409;-65
2023/12/12 03:04:35;;;;;;;34.80;31.13;;;14.70;99.90;;;;;;4987367;28;20420;-66
2023/12/12 03:07:00;;;;;;;34.47;30.92;;;13.90;99.90;;;;;;4977296;28;20049;-65
2023/12/12 03:09:26;;;;;;;32.35;28.55;;;14.00;99.90;;;;;;4988725;28;20042;-65
2023/12/12 03:11:53;;;;;;;31.77;28.55;;;14.80;99.90;;;;;;4987812;28;20039;-65
2023/12/12 03:14:19;;;;;;;32.42;29.17;;;14.30;99.90;;;;;;4988591;28;20125;-65
2023/12/12 03:16:45;;;;;;;33.42;29.80;;;15.00;99.90;;;;;;4991635;28;20100;-65
2023/12/12 03:19:10;;;;;;;28.92;26.30;;;16.80;99.90;;;;;;4987887;28;20046;-65
2023/12/12 03:21:36;;;;;;;31.35;28.60;;;13.50;99.90;;;;;;5000191;28;20050;-65
2023/12/12 03:24:01;;;;;;;35.33;31.00;;;13.40;99.90;;;;;;4988321;28;20043;-66
2023/12/12 03:26:27;;;;;;;34.25;31.23;;;13.00;99.90;;;;;;4997224;28;20048;-66
2023/12/12 03:28:52;;;;;;;35.15;31.85;;;12.80;99.90;;;;;;4996668;28;20054;-66
2023/12/12 03:31:18;;;;;;;34.08;30.80;;;13.10;99.90;;;;;;4995326;28;20045;-67
2023/12/12 03:33:43;;;;;;;36.95;32.97;;;14.30;99.90;;;;;;5001159;28;20125;-67
2023/12/12 03:36:09;;;;;;;36.25;32.55;;;13.30;99.90;;;;;;4973580;28;20062;-66
2023/12/12 03:38:35;;;;;;;34.13;30.95;;;14.40;99.90;;;;;;4992772;28;20034;-66
2023/12/12 03:41:00;;;;;;;35.28;31.98;;;14.90;99.90;;;;;;4997936;28;20073;-66
2023/12/12 03:43:26;;;;;;;33.05;30.05;;;14.80;99.90;;;;;;4994639;28;20064;-66
2023/12/12 03:45:52;;;;;;;32.50;29.75;;;14.70;99.90;;;;;;5005727;28;20048;-67
2023/12/12 03:48:17;;;;;;;31.98;28.67;;;14.50;99.90;;;;;;5001059;28;20046;-66
2023/12/12 03:50:43;;;;;;;29.83;26.67;;;14.60;99.90;;;;;;4992992;28;20038;-66
2023/12/12 03:53:09;;;;;;;33.83;30.30;;;12.80;99.90;;;;;;4987605;28;20053;-66
2023/12/12 03:55:34;;;;;;;34.03;30.92;;;13.20;99.90;;;;;;4987548;28;20445;-67
2023/12/12 03:58:00;;;;;;;60.20;36.25;;;13.40;99.90;;;;;;4986113;28;20050;-66
2023/12/12 04:00:25;;;;;;;36.05;32.72;;;13.00;99.90;;;;;;4987592;28;20042;-66
2023/12/12 04:02:51;;;;;;;37.35;33.78;;;13.00;99.90;;;;;;4987298;28;20133;-66
2023/12/12 04:05:17;;;;;;;36.47;33.05;;;13.00;99.90;;;;;;4986433;28;20046;-68
2023/12/12 04:07:42;;;;;;;36.80;32.83;;;12.90;99.90;;;;;;4987590;28;20089;-66
2023/12/12 04:10:08;;;;;;;35.67;31.77;;;13.90;99.90;;;;;;4986588;28;20110;-66
2023/12/12 04:12:34;;;;;;;34.63;30.92;;;14.20;99.90;;;;;;4994953;28;20041;-66
2023/12/12 04:15:00;;;;;;;34.40;31.05;;;13.20;99.90;;;;;;4988822;28;20102;-66
2023/12/12 04:17:26;;;;;;;31.33;28.73;;;13.30;99.90;;;;;;4996645;28;20112;-66
2023/12/12 04:19:51;;;;;;;34.83;30.95;;;13.30;99.90;;;;;;5003424;28;20042;-66
2023/12/12 04:22:17;;;;;;;35.00;31.75;;;13.90;99.90;;;;;;4987142;28;20101;-67
2023/12/12 04:24:42;;;;;;;36.13;32.92;;;13.40;99.90;;;;;;4987090;28;20034;-68
2023/12/12 04:27:08;;;;;;;37.38;33.63;;;13.30;99.90;;;;;;4987191;28;21039;-66
2023/12/12 04:29:34;;;;;;;251.40;45.05;;;13.00;99.90;;;;;;4985738;28;20054;-67
2023/12/12 04:31:59;;;;;;;38.80;34.20;;;12.80;99.90;;;;;;4984252;28;20038;-66
2023/12/12 04:34:25;;;;;;;35.50;32.05;;;13.00;99.90;;;;;;4984080;28;20038;-66
2023/12/12 04:36:52;;;;;;;36.42;32.92;;;15.20;99.90;;;;;;4988594;28;20553;-66
2023/12/12 04:39:18;;;;;;;35.00;31.65;;;14.80;99.90;;;;;;4986444;28;20042;-66
2023/12/12 04:41:44;;;;;;;34.15;30.60;;;14.50;99.90;;;;;;4993897;28;20069;-66
2023/12/12 04:44:09;;;;;;;36.67;31.52;;;13.90;99.90;;;;;;5001427;28;20141;-67
2023/12/12 04:46:35;;;;;;;35.03;31.88;;;14.40;99.90;;;;;;4993621;28;20062;-66
2023/12/12 04:49:02;;;;;;;34.03;31.02;;;13.80;99.90;;;;;;4989193;28;20038;-66
2023/12/12 04:51:28;;;;;;;33.72;30.58;;;15.10;99.90;;;;;;4986238;28;20085;-67
2023/12/12 04:53:54;;;;;;;32.95;29.55;;;14.20;99.90;;;;;;4983995;28;20343;-67
2023/12/12 04:56:19;;;;;;;35.72;32.00;;;15.20;99.90;;;;;;4979304;28;20084;-67
2023/12/12 04:58:45;;;;;;;38.67;31.33;;;13.60;99.90;;;;;;4969523;28;20076;-67
2023/12/12 05:01:10;;;;;;;37.40;33.08;;;13.40;99.90;;;;;;4980797;28;20473;-65
2023/12/12 05:03:36;;;;;;;41.03;33.85;;;13.90;99.90;;;;;;4979024;28;20054;-65
2023/12/12 05:06:01;;;;;;;34.90;31.77;;;14.10;99.90;;;;;;4981383;28;20127;-66
2023/12/12 05:08:27;;;;;;;45.25;33.45;;;14.30;99.90;;;;;;4975471;28;20490;-66
2023/12/12 05:10:52;;;;;;;36.25;32.40;;;14.30;99.90;;;;;;4976079;28;20030;-68
2023/12/12 05:13:18;;;;;;;35.38;31.80;;;15.40;99.90;;;;;;4975458;28;20121;-66
2023/12/12 05:15:44;;;;;;;36.45;32.50;;;15.80;99.90;;;;;;4985796;28;20073;-68
2023/12/12 05:18:10;;;;;;;35.67;30.63;;;14.50;99.90;;;;;;4987163;28;20044;-67
2023/12/12 05:20:36;;;;;;;36.75;32.90;;;15.90;99.90;;;;;;4988571;28;20042;-67
2023/12/12 05:23:01;;;;;;;34.15;30.50;;;15.60;99.90;;;;;;4995332;28;20495;-68
2023/12/12 05:25:27;;;;;;;35.80;30.80;;;15.00;99.90;;;;;;4993538;28;20050;-67
2023/12/12 05:27:53;;;;;;;33.90;30.15;;;16.30;99.90;;;;;;4992275;28;20464;-68
2023/12/12 05:30:19;;;;;;;36.58;31.15;;;16.80;99.90;;;;;;5006112;28;20050;-67
2023/12/12 05:32:44;;;;;;;34.60;31.05;;;16.10;99.90;;;;;;4999331;28;20400;-67
2023/12/12 05:35:10;;;;;;;38.03;34.13;;;16.40;99.90;;;;;;4991360;28;20134;-67
2023/12/12 05:37:36;;;;;;;44.53;34.90;;;14.10;99.90;;;;;;4995047;28;20049;-67
2023/12/12 05:40:04;;;;;;;49.17;34.60;;;14.70;99.90;;;;;;4990558;28;20065;-68
2023/12/12 05:42:30;;;;;;;44.60;35.38;;;14.40;99.90;;;;;;4998302;28;20081;-67
2023/12/12 05:44:56;;;;;;;37.35;33.58;;;14.90;99.90;;;;;;4990526;28;20910;-67
2023/12/12 05:47:21;;;;;;;36.45;32.63;;;14.70;99.90;;;;;;5001210;28;20121;-67
2023/12/12 05:49:47;;;;;;;37.63;32.50;;;15.50;99.90;;;;;;5002573;28;20034;-67
2023/12/12 05:52:12;;;;;;;46.25;31.35;;;15.50;99.90;;;;;;5006246;28;20510;-68
2023/12/12 05:54:38;;;;;;;45.08;38.78;;;15.20;99.90;;;;;;4996311;28;20037;-67
2023/12/12 05:57:04;;;;;;;51.40;30.88;;;15.40;99.90;;;;;;4998514;28;20463;-67
2023/12/12 05:59:31;;;;;;;46.47;33.85;;;16.50;99.90;;;;;;5004462;28;20050;-67
2023/12/12 06:01:56;;;;;;;54.15;35.58;;;15.40;99.90;;;;;;5002053;28;20069;-67
2023/12/12 06:04:22;;;;;;;59.95;45.03;;;15.80;99.90;;;;;;5009122;28;20562;-68
2023/12/12 06:06:48;;;;;;;51.30;36.72;;;16.00;99.90;;;;;;4999215;28;20054;-68
2023/12/12 06:09:13;;;;;;;52.65;34.90;;;17.70;99.90;;;;;;4989473;28;20467;-67
2023/12/12 06:11:41;;;;;;;43.95;34.90;;;17.30;99.90;;;;;;4999905;28;20178;-67
2023/12/12 06:14:07;;;;;;;56.78;42.65;;;16.70;99.90;;;;;;5009215;28;20122;-67
2023/12/12 06:16:34;;;;;;;52.75;35.00;;;15.90;99.90;;;;;;4990376;28;20126;-67
2023/12/12 06:18:59;;;;;;;49.03;35.47;;;17.00;99.90;;;;;;4980189;28;20081;-67
2023/12/12 06:21:25;;;;;;;62.78;45.10;;;15.60;99.90;;;;;;4993023;28;20074;-67
2023/12/12 06:23:51;;;;;;;63.30;36.33;;;17.10;99.90;;;;;;5003680;28;20041;-68
2023/12/12 06:26:16;;;;;;;60.92;36.85;;;16.20;99.90;;;;;;4999305;28;20056;-67
2023/12/12 06:28:42;;;;;;;61.67;37.22;;;16.60;99.90;;;;;;5006859;28;20048;-68
2023/12/12 06:31:08;;;;;;;74.68;48.70;;;16.20;99.90;;;;;;4991550;28;20054;-68
2023/12/12 06:33:34;;;;;;;71.35;36.72;;;16.40;99.90;;;;;;5006696;28;20053;-68
2023/12/12 06:35:59;;;;;;;68.82;37.38;;;15.70;99.90;;;;;;5006258;28;20050;-68
2023/12/12 06:38:25;;;;;;;99.07;50.35;;;15.70;99.90;;;;;;5007100;28;20044;-68
2023/12/12 06:40:51;;;;;;;72.95;38.53;;;16.90;99.90;;;;;;4993222;28;20416;-67
2023/12/12 06:43:17;;;;;;;77.43;39.85;;;17.10;99.90;;;;;;4997147;28;20042;-67
2023/12/12 06:45:43;;;;;;;68.80;40.13;;;17.50;99.90;;;;;;4992350;28;20531;-67
2023/12/12 06:48:08;;;;;;;80.30;39.85;;;16.80;99.90;;;;;;5006005;28;20046;-67
2023/12/12 06:50:34;;;;;;;80.03;40.13;;;16.20;99.90;;;;;;5006898;28;20468;-68
2023/12/12 06:52:59;;;;;;;83.45;40.08;;;15.80;99.90;;;;;;4993659;28;20050;-67
2023/12/12 06:55:25;;;;;;;72.85;39.35;;;17.10;99.90;;;;;;4988708;28;20723;-66
2023/12/12 06:57:51;;;;;;;92.78;43.28;;;15.80;99.90;;;;;;4988988;28;20042;-67
2023/12/12 07:00:17;;;;;;;141.07;63.42;;;17.50;99.90;;;;;;4987218;28;20042;-66
2023/12/12 07:02:42;;;;;;;135.02;64.18;;;17.60;99.90;;;;;;4987143;28;20065;-66
2023/12/12 07:05:08;;;;;;;144.27;63.88;;;16.80;99.90;;;;;;4988675;28;20524;-66
2023/12/12 07:07:34;;;;;;;149.48;66.78;;;16.00;99.90;;;;;;4987368;28;20469;-66
2023/12/12 07:10:02;;;;;;;109.82;44.90;;;17.10;99.90;;;;;;4988798;28;20046;-65
2023/12/12 07:12:27;;;;;;;100.88;43.33;;;16.40;99.90;;;;;;4986766;28;20119;-66
2023/12/12 07:14:53;;;;;;;134.68;65.30;;;16.60;99.90;;;;;;4986931;28;20045;-66
2023/12/12 07:17:19;;;;;;;137.70;66.65;;;16.10;99.90;;;;;;4987611;28;20184;-68
2023/12/12 07:19:44;;;;;;;140.48;67.60;;;16.30;99.90;;;;;;4988617;28;20061;-68
2023/12/12 07:22:10;;;;;;;131.95;67.97;;;16.40;99.90;;;;;;4987389;28;20054;-66
2023/12/12 07:24:35;;;;;;;138.65;71.47;;;16.90;99.90;;;;;;5003982;28;20039;-66
2023/12/12 07:27:01;;;;;;;141.48;71.63;;;18.10;99.90;;;;;;4987350;28;20042;-66
2023/12/12 07:29:27;;;;;;;130.15;71.72;;;17.80;99.90;;;;;;4985470;28;20129;-66
2023/12/12 07:31:52;;;;;;;122.40;70.55;;;17.40;99.90;;;;;;4986660;28;20038;-66
2023/12/12 07:34:18;;;;;;;88.70;48.17;;;17.90;99.90;;;;;;4986333;28;20038;-66
2023/12/12 07:36:45;;;;;;;112.10;71.97;;;16.80;99.90;;;;;;4985707;28;20535;-67
2023/12/12 07:39:11;;;;;;;86.72;47.40;;;17.80;99.90;;;;;;4988070;28;20053;-66
2023/12/12 07:41:36;;;;;;;81.90;47.83;;;17.60;99.90;;;;;;5003287;28;20038;-67
2023/12/12 07:44:03;;;;;;;102.80;66.82;;;17.50;99.90;;;;;;4985902;28;20133;-66
2023/12/12 07:46:29;;;;;;;72.53;47.25;;;16.70;99.90;;;;;;4987303;28;20046;-66
2023/12/12 07:48:54;;;;;;;70.57;47.75;;;15.70;99.90;;;;;;4969982;28;20046;-67
2023/12/12 07:51:20;;;;;;;72.25;45.30;;;15.70;99.90;;;;;;4993360;28;20084;-67
2023/12/12 07:53:45;;;;;;;74.15;47.60;;;15.50;99.90;;;;;;4987523;28;20057;-66
2023/12/12 07:56:11;;;;;;;89.00;63.10;;;16.80;99.90;;;;;;4984737;28;20072;-67
2023/12/12 07:58:37;;;;;;;73.10;48.67;;;16.70;99.90;;;;;;4983221;28;20097;-66
2023/12/12 08:01:03;;;;;;;65.88;45.58;;;16.20;99.90;;;;;;5003026;28;20072;-66
2023/12/12 08:03:29;;;;;;;71.97;46.78;;;16.10;99.90;;;;;;4984748;28;20054;-70
2023/12/12 08:05:55;;;;;;;68.40;46.72;;;16.20;99.90;;;;;;4985053;28;20042;-70
2023/12/12 08:08:21;;;;;;;71.45;45.30;;;15.50;99.90;;;;;;4987134;28;20500;-71
2023/12/12 08:10:46;;;;;;;73.80;47.42;;;15.50;99.90;;;;;;4986604;28;20859;-71
2023/12/12 08:13:13;;;;;;;75.63;46.55;;;15.60;99.90;;;;;;4986549;28;20073;-71
2023/12/12 08:15:38;;;;;;;71.22;46.17;;;15.60;99.90;;;;;;4985278;28;20508;-70
2023/12/12 08:18:04;;;;;;;112.28;63.58;;;15.10;99.90;;;;;;5000811;28;20046;-71
2023/12/12 08:20:30;;;;;;;81.70;46.60;;;16.50;99.90;;;;;;4989673;28;20104;-71
2023/12/12 08:22:57;;;;;;;170.07;70.90;;;16.10;99.90;;;;;;4985313;28;20046;-71
2023/12/12 08:25:22;;;;;;;83.00;44.60;;;16.50;99.90;;;;;;4987305;28;20057;-71
2023/12/12 08:27:48;;;;;;;66.30;45.15;;;15.20;99.90;;;;;;4986937;28;20038;-71
2023/12/12 08:30:14;;;;;;;65.25;44.40;;;15.60;99.90;;;;;;4986512;28;20050;-71
2023/12/12 08:32:39;;;;;;;98.55;62.60;;;16.10;99.90;;;;;;5000521;28;20053;-70
2023/12/12 08:35:06;;;;;;;74.82;45.65;;;14.90;99.90;;;;;;4986362;28;20046;-71
2023/12/12 08:37:32;;;;;;;115.13;66.45;;;16.30;99.90;;;;;;4983275;28;20705;-70
2023/12/12 08:39:58;;;;;;;74.68;42.75;;;16.30;99.90;;;;;;4983543;28;20049;-70
2023/12/12 08:42:23;;;;;;;94.10;43.58;;;15.70;99.90;;;;;;4985492;28;20042;-70
2023/12/12 08:44:49;;;;;;;148.50;68.68;;;15.40;99.90;;;;;;4985505;28;20073;-71
2023/12/12 08:47:15;;;;;;;82.22;41.05;;;14.80;99.90;;;;;;4985628;28;20042;-71
2023/12/12 08:49:41;;;;;;;72.03;43.53;;;15.70;99.90;;;;;;4984943;28;20049;-71
2023/12/12 08:52:07;;;;;;;91.65;43.53;;;14.70;99.90;;;;;;4985016;28;20069;-71
2023/12/12 08:54:35;;;;;;;87.57;44.00;;;14.80;99.90;;;;;;4983839;28;20041;-71
2023/12/12 08:57:02;;;;;;;84.38;43.40;;;15.00;99.90;;;;;;5001278;28;20141;-71
2023/12/12 08:59:28;;;;;;;72.00;43.05;;;14.60;99.90;;;;;;4984136;28;20046;-70
2023/12/12 09:01:54;;;;;;;135.32;60.97;;;15.90;99.90;;;;;;4985857;28;20060;-70
2023/12/12 09:04:20;;;;;;;188.73;44.92;;;15.00;99.90;;;;;;4986931;28;20054;-70
2023/12/12 09:06:45;;;;;;;319.73;46.00;;;15.80;99.90;;;;;;4986000;28;20049;-71
2023/12/12 09:09:12;;;;;;;452.10;47.15;;;14.90;99.90;;;;;;4985943;28;20579;-70
2023/12/12 09:11:39;;;;;;;294.02;43.40;;;14.70;99.90;;;;;;4984188;28;20042;-71
2023/12/12 09:14:05;;;;;;;206.98;42.17;;;14.50;99.90;;;;;;4984733;28;20172;-66
2023/12/12 09:16:31;;;;;;;315.42;42.10;;;16.10;99.90;;;;;;4986174;28;20125;-67
2023/12/12 09:18:57;;;;;;;237.27;37.58;;;16.00;99.90;;;;;;4989352;28;20133;-67
2023/12/12 09:21:22;;;;;;;295.35;41.53;;;14.50;99.90;;;;;;4982460;28;20269;-67
2023/12/12 09:23:48;;;;;;;172.23;37.95;;;15.50;99.90;;;;;;4984682;28;20129;-67
2023/12/12 09:26:18;;;;;;;202.80;42.40;;;15.60;99.90;;;;;;4985742;28;20054;-67
2023/12/12 09:28:44;;;;;;;155.75;40.15;;;16.00;99.90;;;;;;5000119;28;20088;-67
2023/12/12 09:31:11;;;;;;;469.77;53.65;;;16.20;99.90;;;;;;5000439;28;20175;-66
2023/12/12 09:33:37;;;;;;;310.85;46.33;;;14.60;99.90;;;;;;4983565;28;20523;-66
2023/12/12 09:36:04;;;;;;;468.20;53.83;;;15.50;99.90;;;;;;4985650;28;20578;-67
2023/12/12 09:38:29;;;;;;;527.00;54.85;;;15.10;99.90;;;;;;4985472;28;20500;-65
2023/12/12 09:40:56;;;;;;;166.82;43.53;;;14.90;99.90;;;;;;4986194;28;20045;-67
2023/12/12 09:43:26;;;;;;;159.88;42.72;;;15.10;99.90;;;;;;4986264;28;20042;-66
2023/12/12 09:45:55;;;;;;;137.73;41.60;;;16.20;99.90;;;;;;4987762;28;20204;-67
2023/12/12 09:48:21;;;;;;;289.20;45.03;;;15.90;99.90;;;;;;4968498;28;20054;-67
2023/12/12 09:50:47;;;;;;;632.30;63.28;;;16.40;99.90;;;;;;4985907;28;20381;-68
2023/12/12 09:53:14;;;;;;;664.40;119.38;;;15.60;99.90;;;;;;4986772;28;20054;-66
2023/12/12 09:55:41;;;;;;;364.67;50.10;;;15.70;99.90;;;;;;4986875;28;20057;-66
2023/12/12 09:58:07;;;;;;;390.15;50.30;;;16.10;99.90;;;;;;4983432;28;20046;-67
2023/12/12 10:00:32;;;;;;;313.92;49.40;;;15.30;99.90;;;;;;4990545;28;20041;-67
2023/12/12 10:03:04;;;;;;;121.03;41.70;;;14.80;99.90;;;;;;4985470;28;20046;-67
2023/12/12 10:05:32;;;;;;;200.27;46.78;;;15.40;99.90;;;;;;4985097;28;20584;-67
2023/12/12 10:08:01;;;;;;;292.27;90.28;;;14.80;99.90;;;;;;4986720;28;20034;-66
2023/12/12 10:10:27;;;;;;;327.90;51.38;;;14.80;99.90;;;;;;4988200;28;20057;-67
2023/12/12 10:12:52;;;;;;;257.23;47.25;;;16.50;99.90;;;;;;4990316;28;20576;-66
2023/12/12 10:15:27;;;;;;;183.10;45.08;;;16.30;99.90;;;;;;4990228;28;20129;-67
2023/12/12 10:17:59;;;;;;;138.55;41.28;;;15.00;99.90;;;;;;4988622;28;20409;-67
2023/12/12 10:20:30;;;;;;;309.88;92.70;;;16.00;99.90;;;;;;4988019;28;20034;-67
2023/12/12 10:23:00;;;;;;;56.85;36.85;;;15.10;99.90;;;;;;4986922;28;20130;-67
2023/12/12 10:25:34;;;;;;;138.10;40.63;;;16.30;99.90;;;;;;4988256;28;20046;-66
2023/12/12 10:28:00;;;;;;;61.13;39.25;;;16.20;99.90;;;;;;4989099;28;20548;-67
2023/12/12 10:30:26;;;;;;;67.95;38.83;;;15.00;99.90;;;;;;4989076;28;20428;-67
2023/12/12 10:32:54;;;;;;;89.90;42.50;;;15.40;99.90;;;;;;4988161;28;20125;-68
2023/12/12 10:35:20;;;;;;;66.45;38.90;;;16.50;99.90;;;;;;4989234;28;20073;-66
2023/12/12 10:37:46;;;;;;;106.35;44.20;;;16.70;99.90;;;;;;4989867;28;20046;-66
2023/12/12 10:40:21;;;;;;;72.05;40.97;;;16.50;99.90;;;;;;4988021;28;20052;-68
2023/12/12 10:42:47;;;;;;;131.47;79.83;;;16.50;99.90;;;;;;4987662;28;20061;-68
2023/12/12 10:45:16;;;;;;;59.50;40.13;;;16.70;99.90;;;;;;4989801;28;20386;-69
2023/12/12 10:47:44;;;;;;;145.68;89.38;;;16.70;99.90;;;;;;4987669;28;20046;-68
2023/12/12 10:50:13;;;;;;;76.43;42.70;;;15.70;99.90;;;;;;4987725;28;20511;-67
2023/12/12 10:52:40;;;;;;;137.07;83.13;;;15.80;99.90;;;;;;4987916;28;20053;-68
2023/12/12 10:55:11;;;;;;;81.80;44.53;;;16.90;99.90;;;;;;4989288;28;20112;-67
2023/12/12 10:57:45;;;;;;;86.50;46.97;;;16.00;99.90;;;;;;4986073;28;20044;-67
2023/12/12 11:00:12;;;;;;;79.13;48.50;;;17.30;99.90;;;;;;4986344;28;20093;-69
2023/12/12 11:02:42;;;;;;;135.85;90.38;;;17.00;99.90;;;;;;4987926;28;20060;-68
2023/12/12 11:05:10;;;;;;;126.28;87.97;;;16.90;99.90;;;;;;4989167;28;20476;-67
2023/12/12 11:07:36;;;;;;;77.93;45.63;;;17.60;99.90;;;;;;4987631;28;20040;-69
2023/12/12 11:10:15;;;;;;;142.98;91.38;;;16.00;99.90;;;;;;4988026;28;20113;-68
2023/12/12 11:12:53;;;;;;;88.60;47.28;;;18.00;99.90;;;;;;5003933;28;20484;-68
2023/12/12 11:15:20;;;;;;;81.50;48.05;;;17.30;99.90;;;;;;4999803;28;20046;-67
2023/12/12 11:17:47;;;;;;;87.93;47.80;;;16.00;99.90;;;;;;4985595;28;20046;-68
2023/12/12 11:20:15;;;;;;;111.00;78.63;;;16.10;99.90;;;;;;4983539;28;20101;-68
2023/12/12 11:22:45;;;;;;;81.35;49.78;;;17.10;99.90;;;;;;4987351;28;20042;-66
2023/12/12 11:25:21;;;;;;;83.68;56.20;;;16.50;99.90;;;;;;5005738;28;20050;-65
2023/12/12 11:27:49;;;;;;;71.80;46.67;;;17.80;99.90;;;;;;5016662;28;20038;-67
2023/12/12 11:30:16;;;;;;;81.15;46.08;;;16.80;99.90;;;;;;4991548;28;20049;-65
2023/12/12 11:32:43;;;;;;;86.07;48.13;;;17.40;99.90;;;;;;5002409;28;20073;-67
2023/12/12 11:35:32;;;;;;;106.93;77.03;;;17.60;99.90;;;;;;4988035;28;20786;-72
2023/12/12 11:38:05;;;;;;;91.68;50.33;;;16.50;99.90;;;;;;5013149;28;20424;-70
2023/12/12 11:40:33;;;;;;;65.70;43.67;;;17.20;99.90;;;;;;4989671;28;20127;-72
2023/12/12 11:43:23;;;;;;;108.32;73.53;;;18.20;99.90;;;;;;4984822;28;20046;-71
2023/12/12 11:45:49;;;;;;;79.00;47.05;;;16.80;99.90;;;;;;4982559;28;20054;-72
2023/12/12 11:48:15;;;;;;;67.50;46.50;;;16.70;99.90;;;;;;4986852;28;20042;-72
2023/12/12 11:50:41;;;;;;;100.85;73.28;;;17.00;99.90;;;;;;4991437;28;20121;-72
2023/12/12 11:53:07;;;;;;;72.78;49.13;;;17.40;99.90;;;;;;5002221;28;20084;-71
2023/12/12 11:55:32;;;;;;;105.55;72.63;;;16.70;99.90;;;;;;4991106;28;20061;-71
2023/12/12 11:58:00;;;;;;;104.03;74.57;;;16.70;99.90;;;;;;4984529;28;20129;-69
2023/12/12 12:00:29;;;;;;;94.05;72.57;;;18.30;99.90;;;;;;4986961;28;20405;-71
2023/12/12 12:02:55;;;;;;;68.47;47.10;;;18.10;99.90;;;;;;4999416;28;20059;-70
2023/12/12 12:05:21;;;;;;;68.93;45.90;;;16.90;99.90;;;;;;4987145;28;20121;-72
2023/12/12 12:07:47;;;;;;;77.57;47.72;;;17.40;99.90;;;;;;4986185;28;20042;-72
2023/12/12 12:10:13;;;;;;;78.63;51.95;;;16.80;99.90;;;;;;4987213;28;20069;-71
2023/12/12 12:12:38;;;;;;;80.22;51.35;;;16.90;99.90;;;;;;4984757;28;20474;-71
2023/12/12 12:15:09;;;;;;;103.45;73.03;;;17.90;99.90;;;;;;4985605;28;20142;-72
2023/12/12 12:17:36;;;;;;;100.53;52.60;;;16.90;99.90;;;;;;4982566;28;20046;-71
2023/12/12 12:20:03;;;;;;;102.60;75.65;;;18.70;99.90;;;;;;4986064;28;20049;-71
2023/12/12 12:22:29;;;;;;;99.43;71.93;;;17.70;99.90;;;;;;4985600;28;20046;-70